sensor_id;sensor_type;location;lat;lon;timestamp;pressure;altitude;pressure_sealevel;temperature;humidity
72612;BME280;60655;52.182;4.474;2023-07-31T00:00:25;100851.78;;;17.40;100.00
72612;BME280;60655;52.182;4.474;2023-07-31T00:02:26;100850.13;;;17.34;100.00
72612;BME280;60655;52.182;4.474;2023-07-31T00:04:27;100849.31;;;17.34;100.00
72612;BME280;60655;52.182;4.474;2023-07-31T00:06:28;100856.84;;;17.32;100.00
72612;BME280;60655;52.182;4.474;2023-07-31T00:08:29;100859.25;;;17.28;100.00
72612;BME280;60655;52.182;4.474;2023-07-31T00:10:29;100859.50;;;17.27;100.00
72612;BME280;60655;52.182;4.474;2023-07-31T00:12:30;100861.66;;;17.25;100.00
72612;BME280;60655;52.182;4.474;2023-07-31T00:14:31;100862.72;;;17.24;100.00
72612;BME280;60655;52.182;4.474;2023-07-31T00:16:32;100855.75;;;17.28;100.00
72612;BME280;60655;52.182;4.474;2023-07-31T00:18:33;100856.50;;;17.18;100.00
72612;BME280;60655;52.182;4.474;2023-07-31T00:20:34;100862.91;;;17.12;100.00
72612;BME280;60655;52.182;4.474;2023-07-31T00:22:35;100842.44;;;17.06;100.00
72612;BME280;60655;52.182;4.474;2023-07-31T00:24:37;100857.72;;;17.00;100.00
72612;BME280;60655;52.182;4.474;2023-07-31T00:26:38;100853.94;;;16.96;100.00
72612;BME280;60655;52.182;4.474;2023-07-31T00:28:38;100852.91;;;17.02;100.00
72612;BME280;60655;52.182;4.474;2023-07-31T00:30:39;100860.13;;;16.97;100.00
72612;BME280;60655;52.182;4.474;2023-07-31T00:32:40;100855.81;;;16.96;100.00
72612;BME280;60655;52.182;4.474;2023-07-31T00:34:41;100860.66;;;16.99;100.00
72612;BME280;60655;52.182;4.474;2023-07-31T00:36:42;100856.94;;;17.05;100.00
72612;BME280;60655;52.182;4.474;2023-07-31T00:38:43;100841.63;;;17.00;100.00
72612;BME280;60655;52.182;4.474;2023-07-31T00:40:44;100847.31;;;17.09;100.00
72612;BME280;60655;52.182;4.474;2023-07-31T00:42:45;100843.81;;;17.08;100.00
72612;BME280;60655;52.182;4.474;2023-07-31T00:44:46;100848.41;;;17.13;100.00
72612;BME280;60655;52.182;4.474;2023-07-31T00:46:48;100840.09;;;17.14;100.00
72612;BME280;60655;52.182;4.474;2023-07-31T00:48:49;100839.84;;;17.16;100.00
72612;BME280;60655;52.182;4.474;2023-07-31T00:50:50;100840.13;;;17.19;100.00
72612;BME280;60655;52.182;4.474;2023-07-31T00:52:51;100831.25;;;17.19;100.00
72612;BME280;60655;52.182;4.474;2023-07-31T00:54:52;100829.69;;;17.23;100.00
72612;BME280;60655;52.182;4.474;2023-07-31T00:56:54;100825.38;;;17.22;100.00
72612;BME280;60655;52.182;4.474;2023-07-31T00:58:55;100825.38;;;17.22;100.00
72612;BME280;60655;52.182;4.474;2023-07-31T01:00:56;100834.25;;;17.23;100.00
72612;BME280;60655;52.182;4.474;2023-07-31T01:02:58;100842.03;;;17.24;100.00
72612;BME280;60655;52.182;4.474;2023-07-31T01:04:59;100846.81;;;17.17;100.00
72612;BME280;60655;52.182;4.474;2023-07-31T01:07:44;100824.50;;;17.11;100.00
72612;BME280;60655;52.182;4.474;2023-07-31T01:10:00;100826.16;;;17.17;100.00
72612;BME280;60655;52.182;4.474;2023-07-31T01:12:04;100830.44;;;17.13;100.00
72612;BME280;60655;52.182;4.474;2023-07-31T01:14:07;100828.00;;;17.12;100.00
72612;BME280;60655;52.182;4.474;2023-07-31T01:16:08;100823.44;;;17.12;100.00
72612;BME280;60655;52.182;4.474;2023-07-31T01:18:09;100837.16;;;17.16;100.00
72612;BME280;60655;52.182;4.474;2023-07-31T01:20:13;100811.63;;;17.13;100.00
72612;BME280;60655;52.182;4.474;2023-07-31T01:22:30;100819.72;;;17.18;100.00
72612;BME280;60655;52.182;4.474;2023-07-31T01:27:04;100828.91;;;17.28;100.00
72612;BME280;60655;52.182;4.474;2023-07-31T01:29:20;100817.63;;;17.26;100.00
72612;BME280;60655;52.182;4.474;2023-07-31T01:31:25;100812.25;;;17.26;100.00
72612;BME280;60655;52.182;4.474;2023-07-31T01:33:27;100820.31;;;17.26;100.00
72612;BME280;60655;52.182;4.474;2023-07-31T01:35:29;100812.50;;;17.24;100.00
72612;BME280;60655;52.182;4.474;2023-07-31T01:37:30;100815.75;;;17.26;100.00
72612;BME280;60655;52.182;4.474;2023-07-31T01:39:31;100809.31;;;17.27;100.00
72612;BME280;60655;52.182;4.474;2023-07-31T01:41:32;100812.50;;;17.24;100.00
72612;BME280;60655;52.182;4.474;2023-07-31T01:43:32;100807.94;;;17.25;100.00
72612;BME280;60655;52.182;4.474;2023-07-31T01:45:33;100798.28;;;17.24;100.00
72612;BME280;60655;52.182;4.474;2023-07-31T01:47:34;100794.56;;;17.30;100.00
72612;BME280;60655;52.182;4.474;2023-07-31T01:49:35;100803.69;;;17.29;100.00
72612;BME280;60655;52.182;4.474;2023-07-31T01:51:36;100791.28;;;17.23;100.00
72612;BME280;60655;52.182;4.474;2023-07-31T01:53:37;100798.00;;;17.25;100.00
72612;BME280;60655;52.182;4.474;2023-07-31T01:55:38;100780.03;;;17.26;100.00
72612;BME280;60655;52.182;4.474;2023-07-31T01:57:39;100787.56;;;17.29;100.00
72612;BME280;60655;52.182;4.474;2023-07-31T01:59:40;100779.81;;;17.32;100.00
72612;BME280;60655;52.182;4.474;2023-07-31T02:01:41;100775.75;;;17.35;100.00
72612;BME280;60655;52.182;4.474;2023-07-31T02:03:42;100766.88;;;17.34;100.00
72612;BME280;60655;52.182;4.474;2023-07-31T02:05:47;100767.44;;;17.31;100.00
72612;BME280;60655;52.182;4.474;2023-07-31T02:07:48;100769.84;;;17.33;100.00
72612;BME280;60655;52.182;4.474;2023-07-31T02:09:49;100762.03;;;17.26;100.00
72612;BME280;60655;52.182;4.474;2023-07-31T02:11:50;100761.53;;;17.29;100.00
72612;BME280;60655;52.182;4.474;2023-07-31T02:13:51;100762.59;;;17.33;100.00
72612;BME280;60655;52.182;4.474;2023-07-31T02:15:52;100761.78;;;17.33;100.00
72612;BME280;60655;52.182;4.474;2023-07-31T02:17:53;100766.63;;;17.31;100.00
72612;BME280;60655;52.182;4.474;2023-07-31T02:19:54;100755.06;;;17.35;100.00
72612;BME280;60655;52.182;4.474;2023-07-31T02:21:55;100773.34;;;17.38;100.00
72612;BME280;60655;52.182;4.474;2023-07-31T02:23:56;100767.97;;;17.38;100.00
72612;BME280;60655;52.182;4.474;2023-07-31T02:25:57;100766.63;;;17.36;100.00
72612;BME280;60655;52.182;4.474;2023-07-31T02:27:58;100762.59;;;17.33;100.00
72612;BME280;60655;52.182;4.474;2023-07-31T02:29:58;100753.75;;;17.38;100.00
72612;BME280;60655;52.182;4.474;2023-07-31T02:32:00;100756.44;;;17.38;100.00
72612;BME280;60655;52.182;4.474;2023-07-31T02:34:01;100748.91;;;17.35;100.00
72612;BME280;60655;52.182;4.474;2023-07-31T02:36:02;100752.69;;;17.39;100.00
72612;BME280;60655;52.182;4.474;2023-07-31T02:38:03;100750.25;;;17.37;100.00
72612;BME280;60655;52.182;4.474;2023-07-31T02:40:04;100751.91;;;17.43;100.00
72612;BME280;60655;52.182;4.474;2023-07-31T02:42:05;100750.28;;;17.42;100.00
72612;BME280;60655;52.182;4.474;2023-07-31T02:44:06;100739.81;;;17.41;100.00
72612;BME280;60655;52.182;4.474;2023-07-31T02:46:07;100737.13;;;17.41;100.00
72612;BME280;60655;52.182;4.474;2023-07-31T02:48:08;100741.72;;;17.50;100.00
72612;BME280;60655;52.182;4.474;2023-07-31T02:50:09;100727.19;;;17.46;100.00
72612;BME280;60655;52.182;4.474;2023-07-31T02:52:10;100721.56;;;17.48;100.00
72612;BME280;60655;52.182;4.474;2023-07-31T02:54:11;100725.06;;;17.48;100.00
72612;BME280;60655;52.182;4.474;2023-07-31T02:56:12;100725.59;;;17.50;100.00
72612;BME280;60655;52.182;4.474;2023-07-31T02:58:13;100722.34;;;17.43;100.00
72612;BME280;60655;52.182;4.474;2023-07-31T03:00:14;100719.41;;;17.45;100.00
72612;BME280;60655;52.182;4.474;2023-07-31T03:02:15;100718.06;;;17.42;100.00
72612;BME280;60655;52.182;4.474;2023-07-31T03:04:16;100717.53;;;17.45;100.00
72612;BME280;60655;52.182;4.474;2023-07-31T03:06:17;100725.06;;;17.48;100.00
72612;BME280;60655;52.182;4.474;2023-07-31T03:08:18;100723.44;;;17.47;100.00
72612;BME280;60655;52.182;4.474;2023-07-31T03:10:19;100710.28;;;17.46;100.00
72612;BME280;60655;52.182;4.474;2023-07-31T03:12:20;100718.06;;;17.47;100.00
72612;BME280;60655;52.182;4.474;2023-07-31T03:14:21;100708.94;;;17.43;100.00
72612;BME280;60655;52.182;4.474;2023-07-31T03:16:22;100710.25;;;17.36;100.00
72612;BME280;60655;52.182;4.474;2023-07-31T03:18:23;100721.28;;;17.44;100.00
72612;BME280;60655;52.182;4.474;2023-07-31T03:20:24;100714.84;;;17.45;100.00
72612;BME280;60655;52.182;4.474;2023-07-31T03:22:24;100717.28;;;17.52;100.00
72612;BME280;60655;52.182;4.474;2023-07-31T03:24:26;100715.63;;;17.41;100.00
72612;BME280;60655;52.182;4.474;2023-07-31T03:26:27;100712.13;;;17.40;100.00
72612;BME280;60655;52.182;4.474;2023-07-31T03:28:28;100715.34;;;17.37;100.00
72612;BME280;60655;52.182;4.474;2023-07-31T03:30:29;100706.47;;;17.37;100.00
72612;BME280;60655;52.182;4.474;2023-07-31T03:32:30;100707.00;;;17.29;100.00
72612;BME280;60655;52.182;4.474;2023-07-31T03:34:31;100691.94;;;17.23;100.00
72612;BME280;60655;52.182;4.474;2023-07-31T03:36:32;100696.50;;;17.22;100.00
72612;BME280;60655;52.182;4.474;2023-07-31T03:38:34;100687.66;;;17.21;100.00
72612;BME280;60655;52.182;4.474;2023-07-31T03:40:35;100693.03;;;17.27;100.00
72612;BME280;60655;52.182;4.474;2023-07-31T03:42:36;100685.50;;;17.24;100.00
72612;BME280;60655;52.182;4.474;2023-07-31T03:44:37;100677.47;;;17.24;100.00
72612;BME280;60655;52.182;4.474;2023-07-31T03:46:38;100682.03;;;17.28;100.00
72612;BME280;60655;52.182;4.474;2023-07-31T03:48:39;100682.84;;;17.29;100.00
72612;BME280;60655;52.182;4.474;2023-07-31T03:50:40;100680.72;;;17.31;100.00
72612;BME280;60655;52.182;4.474;2023-07-31T03:52:41;100675.59;;;17.29;100.00
72612;BME280;60655;52.182;4.474;2023-07-31T03:54:42;100666.75;;;17.29;100.00
72612;BME280;60655;52.182;4.474;2023-07-31T03:56:45;100664.88;;;17.29;100.00
72612;BME280;60655;52.182;4.474;2023-07-31T03:58:46;100668.34;;;17.25;100.00
72612;BME280;60655;52.182;4.474;2023-07-31T04:00:47;100661.88;;;17.20;100.00
72612;BME280;60655;52.182;4.474;2023-07-31T04:02:48;100661.09;;;17.25;100.00
72612;BME280;60655;52.182;4.474;2023-07-31T04:04:49;100672.31;;;17.12;100.00
72612;BME280;60655;52.182;4.474;2023-07-31T04:06:50;100671.75;;;17.10;100.00
72612;BME280;60655;52.182;4.474;2023-07-31T04:08:50;100663.72;;;17.10;100.00
72612;BME280;60655;52.182;4.474;2023-07-31T04:10:51;100665.59;;;17.09;100.00
72612;BME280;60655;52.182;4.474;2023-07-31T04:12:52;100661.56;;;17.07;100.00
72612;BME280;60655;52.182;4.474;2023-07-31T04:14:53;100654.59;;;17.11;100.00
72612;BME280;60655;52.182;4.474;2023-07-31T04:16:54;100644.41;;;17.13;100.00
72612;BME280;60655;52.182;4.474;2023-07-31T04:18:55;100643.03;;;17.05;100.00
72612;BME280;60655;52.182;4.474;2023-07-31T04:20:57;100642.50;;;17.08;100.00
72612;BME280;60655;52.182;4.474;2023-07-31T04:22:59;100648.66;;;17.04;100.00
72612;BME280;60655;52.182;4.474;2023-07-31T04:25:00;100619.94;;;16.94;100.00
72612;BME280;60655;52.182;4.474;2023-07-31T04:27:01;100641.16;;;17.06;100.00
72612;BME280;60655;52.182;4.474;2023-07-31T04:29:02;100632.28;;;17.05;100.00
72612;BME280;60655;52.182;4.474;2023-07-31T04:31:03;100630.69;;;17.04;100.00
72612;BME280;60655;52.182;4.474;2023-07-31T04:33:04;100629.09;;;17.08;100.00
72612;BME280;60655;52.182;4.474;2023-07-31T04:35:05;100628.81;;;17.10;100.00
72612;BME280;60655;52.182;4.474;2023-07-31T04:37:06;100620.75;;;17.05;100.00
72612;BME280;60655;52.182;4.474;2023-07-31T04:39:07;100628.81;;;17.10;100.00
72612;BME280;60655;52.182;4.474;2023-07-31T04:41:08;100632.84;;;17.12;100.00
72612;BME280;60655;52.182;4.474;2023-07-31T04:43:09;100625.88;;;17.16;100.00
72612;BME280;60655;52.182;4.474;2023-07-31T04:45:10;100624.53;;;17.14;100.00
72612;BME280;60655;52.182;4.474;2023-07-31T04:47:11;100612.16;;;17.08;100.00
72612;BME280;60655;52.182;4.474;2023-07-31T04:49:12;100616.47;;;17.09;100.00
72612;BME280;60655;52.182;4.474;2023-07-31T04:51:13;100620.25;;;17.13;100.00
72612;BME280;60655;52.182;4.474;2023-07-31T04:53:14;100624.53;;;17.14;100.00
72612;BME280;60655;52.182;4.474;2023-07-31T04:55:15;100612.19;;;17.03;100.00
72612;BME280;60655;52.182;4.474;2023-07-31T04:57:16;100596.34;;;17.01;100.00
72612;BME280;60655;52.182;4.474;2023-07-31T04:59:17;100610.56;;;17.07;100.00
72612;BME280;60655;52.182;4.474;2023-07-31T05:01:18;100608.97;;;17.11;100.00
72612;BME280;60655;52.182;4.474;2023-07-31T05:03:19;100603.59;;;17.16;100.00
72612;BME280;60655;52.182;4.474;2023-07-31T05:05:20;100602.53;;;17.17;100.00
72612;BME280;60655;52.182;4.474;2023-07-31T05:07:20;100597.16;;;17.12;100.00
72612;BME280;60655;52.182;4.474;2023-07-31T05:09:21;100598.75;;;17.08;100.00
72612;BME280;60655;52.182;4.474;2023-07-31T05:11:22;100605.72;;;17.09;100.00
72612;BME280;60655;52.182;4.474;2023-07-31T05:13:23;100591.22;;;17.00;100.00
72612;BME280;60655;52.182;4.474;2023-07-31T05:15:24;100601.16;;;17.09;100.00
72612;BME280;60655;52.182;4.474;2023-07-31T05:17:25;100590.16;;;17.06;100.00
72612;BME280;60655;52.182;4.474;2023-07-31T05:19:26;100597.41;;;17.05;100.00
72612;BME280;60655;52.182;4.474;2023-07-31T05:21:27;100592.84;;;17.06;100.00
72612;BME280;60655;52.182;4.474;2023-07-31T05:23:28;100589.13;;;17.17;100.00
72612;BME280;60655;52.182;4.474;2023-07-31T05:25:29;100588.56;;;17.15;100.00
72612;BME280;60655;52.182;4.474;2023-07-31T05:27:31;100586.72;;;17.20;100.00
72612;BME280;60655;52.182;4.474;2023-07-31T05:29:32;100579.72;;;17.19;100.00
72612;BME280;60655;52.182;4.474;2023-07-31T05:31:33;100580.53;;;17.20;100.00
72612;BME280;60655;52.182;4.474;2023-07-31T05:33:34;100574.59;;;17.13;100.00
72612;BME280;60655;52.182;4.474;2023-07-31T05:35:35;100564.16;;;17.16;100.00
72612;BME280;60655;52.182;4.474;2023-07-31T05:37:36;100562.78;;;17.09;100.00
72612;BME280;60655;52.182;4.474;2023-07-31T05:39:37;100567.09;;;17.15;100.00
72612;BME280;60655;52.182;4.474;2023-07-31T05:41:38;100562.53;;;17.15;100.00
72612;BME280;60655;52.182;4.474;2023-07-31T05:43:39;100560.66;;;17.16;100.00
72612;BME280;60655;52.182;4.474;2023-07-31T05:45:40;100574.88;;;17.16;100.00
72612;BME280;60655;52.182;4.474;2023-07-31T05:47:41;100564.16;;;17.16;100.00
72612;BME280;60655;52.182;4.474;2023-07-31T05:49:42;100567.13;;;17.20;100.00
72612;BME280;60655;52.182;4.474;2023-07-31T05:51:43;100564.97;;;17.17;100.00
72612;BME280;60655;52.182;4.474;2023-07-31T05:53:44;100566.84;;;17.21;100.00
72612;BME280;60655;52.182;4.474;2023-07-31T05:55:45;100567.91;;;17.20;100.00
72612;BME280;60655;52.182;4.474;2023-07-31T05:57:46;100567.94;;;17.26;100.00
72612;BME280;60655;52.182;4.474;2023-07-31T05:59:46;100557.47;;;17.29;100.00
72612;BME280;60655;52.182;4.474;2023-07-31T06:01:47;100548.59;;;17.24;100.00
72612;BME280;60655;52.182;4.474;2023-07-31T06:03:48;100566.34;;;17.30;100.00
72612;BME280;60655;52.182;4.474;2023-07-31T06:05:49;100556.38;;;17.25;100.00
72612;BME280;60655;52.182;4.474;2023-07-31T06:07:50;100554.78;;;17.24;100.00
72612;BME280;60655;52.182;4.474;2023-07-31T06:09:51;100546.97;;;17.23;100.00
72612;BME280;60655;52.182;4.474;2023-07-31T06:11:52;100548.06;;;17.27;100.00
72612;BME280;60655;52.182;4.474;2023-07-31T06:13:53;100551.03;;;17.25;100.00
72612;BME280;60655;52.182;4.474;2023-07-31T06:15:55;100543.50;;;17.27;100.00
72612;BME280;60655;52.182;4.474;2023-07-31T06:17:55;100547.81;;;17.28;100.00
72612;BME280;60655;52.182;4.474;2023-07-31T06:19:57;100546.72;;;17.29;100.00
72612;BME280;60655;52.182;4.474;2023-07-31T06:21:58;100540.25;;;17.35;100.00
72612;BME280;60655;52.182;4.474;2023-07-31T06:23:59;100537.31;;;17.37;100.00
72612;BME280;60655;52.182;4.474;2023-07-31T06:26:00;100543.22;;;17.39;100.00
72612;BME280;60655;52.182;4.474;2023-07-31T06:28:01;100537.31;;;17.37;100.00
72612;BME280;60655;52.182;4.474;2023-07-31T06:30:03;100529.53;;;17.35;100.00
72612;BME280;60655;52.182;4.474;2023-07-31T06:32:04;100522.00;;;17.37;100.00
72612;BME280;60655;52.182;4.474;2023-07-31T06:34:05;100537.03;;;17.38;100.00
72612;BME280;60655;52.182;4.474;2023-07-31T06:36:05;100526.84;;;17.40;100.00
72612;BME280;60655;52.182;4.474;2023-07-31T06:38:06;100529.00;;;17.38;100.00
72612;BME280;60655;52.182;4.474;2023-07-31T06:40:08;100518.00;;;17.45;100.00
72612;BME280;60655;52.182;4.474;2023-07-31T06:42:10;100528.72;;;17.45;100.00
72612;BME280;60655;52.182;4.474;2023-07-31T06:44:11;100520.13;;;17.33;100.00
72612;BME280;60655;52.182;4.474;2023-07-31T06:46:12;100522.81;;;17.38;100.00
72612;BME280;60655;52.182;4.474;2023-07-31T06:48:13;100522.81;;;17.38;100.00
72612;BME280;60655;52.182;4.474;2023-07-31T06:50:58;100517.44;;;17.38;100.00
72612;BME280;60655;52.182;4.474;2023-07-31T06:52:59;100521.22;;;17.42;100.00
72612;BME280;60655;52.182;4.474;2023-07-31T06:55:16;100517.19;;;17.39;100.00
72612;BME280;60655;52.182;4.474;2023-07-31T06:57:20;100519.06;;;17.49;100.00
72612;BME280;60655;52.182;4.474;2023-07-31T06:59:21;100519.06;;;17.44;100.00
72612;BME280;60655;52.182;4.474;2023-07-31T07:01:22;100520.94;;;17.48;100.00
72612;BME280;60655;52.182;4.474;2023-07-31T07:03:23;100517.44;;;17.48;100.00
72612;BME280;60655;52.182;4.474;2023-07-31T07:05:24;100508.03;;;17.40;100.00
72612;BME280;60655;52.182;4.474;2023-07-31T07:07:25;100500.25;;;17.44;100.00
72612;BME280;60655;52.182;4.474;2023-07-31T07:09:26;100522.03;;;17.52;100.00
72612;BME280;60655;52.182;4.474;2023-07-31T07:11:27;100526.06;;;17.55;100.00
72612;BME280;60655;52.182;4.474;2023-07-31T07:13:28;100535.44;;;17.52;100.00
72612;BME280;60655;52.182;4.474;2023-07-31T07:15:29;100500.00;;;17.40;100.00
72612;BME280;60655;52.182;4.474;2023-07-31T07:17:30;100523.91;;;17.57;100.00
72612;BME280;60655;52.182;4.474;2023-07-31T07:19:35;100533.03;;;17.61;100.00
72612;BME280;60655;52.182;4.474;2023-07-31T07:21:42;100518.50;;;17.62;100.00
72612;BME280;60655;52.182;4.474;2023-07-31T07:23:44;100526.06;;;17.60;100.00
72612;BME280;60655;52.182;4.474;2023-07-31T07:25:45;100524.44;;;17.59;100.00
72612;BME280;60655;52.182;4.474;2023-07-31T07:27:46;100520.69;;;17.55;100.00
72612;BME280;60655;52.182;4.474;2023-07-31T07:29:50;100526.06;;;17.60;100.00
72612;BME280;60655;52.182;4.474;2023-07-31T07:31:51;100530.84;;;17.63;100.00
72612;BME280;60655;52.182;4.474;2023-07-31T07:33:52;100518.53;;;17.67;100.00
72612;BME280;60655;52.182;4.474;2023-07-31T07:35:53;100534.38;;;17.59;100.00
72612;BME280;60655;52.182;4.474;2023-07-31T07:37:54;100521.19;;;17.62;100.00
72612;BME280;60655;52.182;4.474;2023-07-31T07:39:55;100501.06;;;17.54;100.00
72612;BME280;60655;52.182;4.474;2023-07-31T07:41:56;100531.44;;;17.65;100.00
72612;BME280;60655;52.182;4.474;2023-07-31T07:43:57;100515.84;;;17.67;100.00
72612;BME280;60655;52.182;4.474;2023-07-31T07:45:58;100514.75;;;17.63;100.00
72612;BME280;60655;52.182;4.474;2023-07-31T07:47:59;100526.31;;;17.74;100.00
72612;BME280;60655;52.182;4.474;2023-07-31T07:50:00;100525.25;;;17.70;100.00
72612;BME280;60655;52.182;4.474;2023-07-31T07:52:02;100515.03;;;17.77;100.00
72612;BME280;60655;52.182;4.474;2023-07-31T07:54:03;100525.25;;;17.75;100.00
72612;BME280;60655;52.182;4.474;2023-07-31T07:56:04;100529.28;;;17.82;100.00
72612;BME280;60655;52.182;4.474;2023-07-31T07:58:05;100524.16;;;17.86;100.00
72612;BME280;60655;52.182;4.474;2023-07-31T08:00:07;100520.94;;;17.84;100.00
72612;BME280;60655;52.182;4.474;2023-07-31T08:02:09;100521.47;;;17.86;100.00
72612;BME280;60655;52.182;4.474;2023-07-31T08:04:10;100515.31;;;17.85;100.00
72612;BME280;60655;52.182;4.474;2023-07-31T08:06:11;100503.47;;;17.86;100.00
72612;BME280;60655;52.182;4.474;2023-07-31T08:08:15;100515.25;;;17.96;100.00
72612;BME280;60655;52.182;4.474;2023-07-31T08:10:18;100506.44;;;17.90;100.00
72612;BME280;60655;52.182;4.474;2023-07-31T08:12:19;100503.19;;;17.88;100.00
72612;BME280;60655;52.182;4.474;2023-07-31T08:14:20;100509.94;;;17.85;100.00
72612;BME280;60655;52.182;4.474;2023-07-31T08:16:20;100509.88;;;17.91;100.00
72612;BME280;60655;52.182;4.474;2023-07-31T08:18:21;100502.34;;;17.93;100.00
72612;BME280;60655;52.182;4.474;2023-07-31T08:20:22;100510.69;;;17.96;100.00
72612;BME280;60655;52.182;4.474;2023-07-31T08:22:23;100492.19;;;17.90;100.00
72612;BME280;60655;52.182;4.474;2023-07-31T08:24:24;100494.06;;;17.89;100.00
72612;BME280;60655;52.182;4.474;2023-07-31T08:26:26;100498.09;;;17.86;100.00
72612;BME280;60655;52.182;4.474;2023-07-31T08:28:27;100491.88;;;17.91;100.00
72612;BME280;60655;52.182;4.474;2023-07-31T08:30:28;100498.38;;;17.85;100.00
72612;BME280;60655;52.182;4.474;2023-07-31T08:32:29;100497.28;;;17.86;100.00
72612;BME280;60655;52.182;4.474;2023-07-31T08:34:30;100492.19;;;17.84;100.00
72612;BME280;60655;52.182;4.474;2023-07-31T08:36:31;100487.56;;;18.00;100.00
72612;BME280;60655;52.182;4.474;2023-07-31T08:38:32;100477.88;;;17.99;100.00
72612;BME280;60655;52.182;4.474;2023-07-31T08:40:36;100488.09;;;18.07;100.00
72612;BME280;60655;52.182;4.474;2023-07-31T08:42:46;100489.69;;;18.08;100.00
72612;BME280;60655;52.182;4.474;2023-07-31T08:44:47;100488.06;;;18.12;100.00
72612;BME280;60655;52.182;4.474;2023-07-31T08:46:49;100491.03;;;18.16;100.00
72612;BME280;60655;52.182;4.474;2023-07-31T08:48:51;100492.13;;;18.05;100.00
72612;BME280;60655;52.182;4.474;2023-07-31T08:50:52;100496.41;;;18.11;100.00
72612;BME280;60655;52.182;4.474;2023-07-31T08:52:54;100488.59;;;18.14;100.00
72612;BME280;60655;52.182;4.474;2023-07-31T08:54:54;100496.66;;;18.14;100.00
72612;BME280;60655;52.182;4.474;2023-07-31T08:56:56;100489.97;;;18.12;100.00
72612;BME280;60655;52.182;4.474;2023-07-31T08:58:59;100493.44;;;18.12;100.00
72612;BME280;60655;52.182;4.474;2023-07-31T09:01:04;100496.13;;;18.17;100.00
72612;BME280;60655;52.182;4.474;2023-07-31T09:03:11;100469.53;;;18.06;100.00
72612;BME280;60655;52.182;4.474;2023-07-31T09:05:14;100491.81;;;18.16;100.00
72612;BME280;60655;52.182;4.474;2023-07-31T09:07:16;100483.25;;;18.09;100.00
72612;BME280;60655;52.182;4.474;2023-07-31T09:09:17;100489.97;;;18.12;100.00
72612;BME280;60655;52.182;4.474;2023-07-31T09:11:18;100492.66;;;18.12;100.00
72612;BME280;60655;52.182;4.474;2023-07-31T09:13:19;100496.66;;;18.14;100.00
72612;BME280;60655;52.182;4.474;2023-07-31T09:15:21;100491.81;;;18.16;100.00
72612;BME280;60655;52.182;4.474;2023-07-31T09:17:33;100494.47;;;18.27;100.00
72612;BME280;60655;52.182;4.474;2023-07-31T09:19:36;100496.63;;;18.25;100.00
72612;BME280;60655;52.182;4.474;2023-07-31T09:21:49;100492.56;;;18.27;100.00
72612;BME280;60655;52.182;4.474;2023-07-31T09:23:50;100502.53;;;18.27;100.00
72612;BME280;60655;52.182;4.474;2023-07-31T09:25:55;100491.25;;;18.19;100.00
72612;BME280;60655;52.182;4.474;2023-07-31T09:28:01;100492.31;;;18.23;100.00
72612;BME280;60655;52.182;4.474;2023-07-31T09:30:02;100490.94;;;18.31;100.00
72612;BME280;60655;52.182;4.474;2023-07-31T09:32:03;100494.44;;;18.32;100.00
72612;BME280;60655;52.182;4.474;2023-07-31T09:34:04;100489.84;;;18.37;100.00
72612;BME280;60655;52.182;4.474;2023-07-31T09:36:05;100496.28;;;18.41;100.00
72612;BME280;60655;52.182;4.474;2023-07-31T09:38:11;100492.00;;;18.40;100.00
72612;BME280;60655;52.182;4.474;2023-07-31T09:40:25;100476.94;;;18.34;100.00
72612;BME280;60655;52.182;4.474;2023-07-31T09:42:26;100486.88;;;18.44;100.00
72612;BME280;60655;52.182;4.474;2023-07-31T09:44:39;100492.19;;;18.49;100.00
72612;BME280;60655;52.182;4.474;2023-07-31T09:46:41;100487.59;;;18.54;100.00
72612;BME280;60655;52.182;4.474;2023-07-31T09:48:43;100482.75;;;18.56;100.00
72612;BME280;60655;52.182;4.474;2023-07-31T09:50:45;100476.00;;;18.59;100.00
72612;BME280;60655;52.182;4.474;2023-07-31T09:52:47;100480.88;;;18.57;100.00
72612;BME280;60655;52.182;4.474;2023-07-31T09:54:48;100482.75;;;18.56;100.00
72612;BME280;60655;52.182;4.474;2023-07-31T09:56:49;100485.72;;;18.55;100.00
72612;BME280;60655;52.182;4.474;2023-07-31T09:58:50;100473.91;;;18.51;100.00
72612;BME280;60655;52.182;4.474;2023-07-31T10:00:51;100472.34;;;18.45;100.00
72612;BME280;60655;52.182;4.474;2023-07-31T10:02:52;100481.44;;;18.49;100.00
72612;BME280;60655;52.182;4.474;2023-07-31T10:04:57;100489.50;;;18.49;100.00
72612;BME280;60655;52.182;4.474;2023-07-31T10:06:59;100493.25;;;18.53;100.00
72612;BME280;60655;52.182;4.474;2023-07-31T10:09:05;100476.59;;;18.51;100.00
72612;BME280;60655;52.182;4.474;2023-07-31T10:11:07;100473.88;;;18.56;100.00
72612;BME280;60655;52.182;4.474;2023-07-31T10:13:11;100483.50;;;18.72;100.00
72612;BME280;60655;52.182;4.474;2023-07-31T10:15:12;100483.84;;;18.61;100.00
72612;BME280;60655;52.182;4.474;2023-07-31T10:17:15;100485.44;;;18.67;100.00
72612;BME280;60655;52.182;4.474;2023-07-31T10:19:18;100481.06;;;18.76;100.00
72612;BME280;60655;52.182;4.474;2023-07-31T10:21:19;100480.72;;;18.87;100.00
72612;BME280;60655;52.182;4.474;2023-07-31T10:23:22;100484.72;;;18.90;100.00
72612;BME280;60655;52.182;4.474;2023-07-31T10:25:23;100471.03;;;18.86;100.00
72612;BME280;60655;52.182;4.474;2023-07-31T10:27:25;100477.78;;;18.79;100.00
72612;BME280;60655;52.182;4.474;2023-07-31T10:29:27;100496.84;;;18.87;100.00
72612;BME280;60655;52.182;4.474;2023-07-31T10:31:30;100488.50;;;18.89;100.00